sensor_id;sensor_type;location;lat;lon;timestamp;temperature;humidity
10294;DHT22;5192;50.328;7.610;2022-12-29T00:00:54;11.40;32.70
10294;DHT22;5192;50.328;7.610;2022-12-29T00:03:21;11.30;34.60
10294;DHT22;5192;50.328;7.610;2022-12-29T00:05:54;11.30;37.40
10294;DHT22;5192;50.328;7.610;2022-12-29T00:08:26;11.20;38.70
10294;DHT22;5192;50.328;7.610;2022-12-29T00:11:11;11.10;39.70
10294;DHT22;5192;50.328;7.610;2022-12-29T00:13:39;11.10;42.00
10294;DHT22;5192;50.328;7.610;2022-12-29T00:16:24;11.00;43.90
10294;DHT22;5192;50.328;7.610;2022-12-29T00:18:51;11.00;46.80
10294;DHT22;5192;50.328;7.610;2022-12-29T00:21:21;10.90;49.80
10294;DHT22;5192;50.328;7.610;2022-12-29T00:24:13;10.90;53.40
10294;DHT22;5192;50.328;7.610;2022-12-29T00:26:44;10.70;57.50
10294;DHT22;5192;50.328;7.610;2022-12-29T00:29:31;10.70;59.90
10294;DHT22;5192;50.328;7.610;2022-12-29T00:32:17;10.60;63.80
10294;DHT22;5192;50.328;7.610;2022-12-29T00:35:01;10.50;67.80
10294;DHT22;5192;50.328;7.610;2022-12-29T00:37:43;10.50;69.40
10294;DHT22;5192;50.328;7.610;2022-12-29T00:40:30;10.40;71.50
10294;DHT22;5192;50.328;7.610;2022-12-29T00:43:16;10.40;72.20
10294;DHT22;5192;50.328;7.610;2022-12-29T00:46:03;10.40;73.10
10294;DHT22;5192;50.328;7.610;2022-12-29T00:48:30;10.30;73.00
10294;DHT22;5192;50.328;7.610;2022-12-29T00:51:14;10.30;71.90
10294;DHT22;5192;50.328;7.610;2022-12-29T00:53:43;10.30;72.50
10294;DHT22;5192;50.328;7.610;2022-12-29T00:56:10;10.30;72.80
10294;DHT22;5192;50.328;7.610;2022-12-29T00:58:38;10.40;73.20
10294;DHT22;5192;50.328;7.610;2022-12-29T01:01:06;10.30;72.80
10294;DHT22;5192;50.328;7.610;2022-12-29T01:03:34;10.30;73.50
10294;DHT22;5192;50.328;7.610;2022-12-29T01:06:03;10.30;73.60
10294;DHT22;5192;50.328;7.610;2022-12-29T01:08:31;10.30;73.80
10294;DHT22;5192;50.328;7.610;2022-12-29T01:11:09;10.30;72.50
10294;DHT22;5192;50.328;7.610;2022-12-29T01:13:36;10.50;70.70
10294;DHT22;5192;50.328;7.610;2022-12-29T01:16:05;10.40;69.50
10294;DHT22;5192;50.328;7.610;2022-12-29T01:18:32;10.40;68.60
10294;DHT22;5192;50.328;7.610;2022-12-29T01:21:05;10.50;68.90
10294;DHT22;5192;50.328;7.610;2022-12-29T01:23:32;10.50;69.00
10294;DHT22;5192;50.328;7.610;2022-12-29T01:26:12;10.50;68.80
10294;DHT22;5192;50.328;7.610;2022-12-29T01:28:40;10.50;68.20
10294;DHT22;5192;50.328;7.610;2022-12-29T01:31:13;10.60;67.00
10294;DHT22;5192;50.328;7.610;2022-12-29T01:33:43;10.60;62.80
10294;DHT22;5192;50.328;7.610;2022-12-29T01:36:12;10.70;60.00
10294;DHT22;5192;50.328;7.610;2022-12-29T01:38:41;10.70;60.60
10294;DHT22;5192;50.328;7.610;2022-12-29T01:41:10;10.90;56.10
10294;DHT22;5192;50.328;7.610;2022-12-29T01:43:58;10.90;54.30
10294;DHT22;5192;50.328;7.610;2022-12-29T01:49:35;11.00;52.20
10294;DHT22;5192;50.328;7.610;2022-12-29T01:52:05;11.20;43.90
10294;DHT22;5192;50.328;7.610;2022-12-29T01:57:03;11.40;43.60
10294;DHT22;5192;50.328;7.610;2022-12-29T01:59:34;11.30;44.60
10294;DHT22;5192;50.328;7.610;2022-12-29T02:02:06;11.30;43.80
10294;DHT22;5192;50.328;7.610;2022-12-29T02:04:40;11.30;44.70
10294;DHT22;5192;50.328;7.610;2022-12-29T02:07:17;11.20;45.70
10294;DHT22;5192;50.328;7.610;2022-12-29T02:09:47;11.20;43.40
10294;DHT22;5192;50.328;7.610;2022-12-29T02:12:21;11.20;42.60
10294;DHT22;5192;50.328;7.610;2022-12-29T02:14:57;11.40;39.00
10294;DHT22;5192;50.328;7.610;2022-12-29T02:18:50;11.40;39.40
10294;DHT22;5192;50.328;7.610;2022-12-29T02:30:03;11.20;45.50
10294;DHT22;5192;50.328;7.610;2022-12-29T02:33:00;11.20;46.10
10294;DHT22;5192;50.328;7.610;2022-12-29T02:44:34;11.20;45.90
10294;DHT22;5192;50.328;7.610;2022-12-29T02:50:26;11.20;47.30
10294;DHT22;5192;50.328;7.610;2022-12-29T02:53:19;11.20;47.50
10294;DHT22;5192;50.328;7.610;2022-12-29T02:56:09;11.10;47.50
10294;DHT22;5192;50.328;7.610;2022-12-29T02:58:36;11.10;48.00
10294;DHT22;5192;50.328;7.610;2022-12-29T03:10:52;11.10;53.40
10294;DHT22;5192;50.328;7.610;2022-12-29T03:13:39;11.10;54.90
10294;DHT22;5192;50.328;7.610;2022-12-29T03:16:59;11.00;58.40
10294;DHT22;5192;50.328;7.610;2022-12-29T03:19:36;10.90;59.80
10294;DHT22;5192;50.328;7.610;2022-12-29T03:22:12;10.90;60.60
10294;DHT22;5192;50.328;7.610;2022-12-29T03:27:47;11.00;52.00
10294;DHT22;5192;50.328;7.610;2022-12-29T03:30:15;11.00;54.50
10294;DHT22;5192;50.328;7.610;2022-12-29T03:32:50;11.10;46.50
10294;DHT22;5192;50.328;7.610;2022-12-29T03:35:22;11.10;47.80
10294;DHT22;5192;50.328;7.610;2022-12-29T03:38:09;11.20;42.80
10294;DHT22;5192;50.328;7.610;2022-12-29T03:40:50;11.30;38.30
10294;DHT22;5192;50.328;7.610;2022-12-29T03:43:18;11.50;35.50
10294;DHT22;5192;50.328;7.610;2022-12-29T03:45:45;11.40;37.20
10294;DHT22;5192;50.328;7.610;2022-12-29T03:48:12;11.40;36.30
10294;DHT22;5192;50.328;7.610;2022-12-29T03:50:39;11.40;34.40
10294;DHT22;5192;50.328;7.610;2022-12-29T03:53:06;11.50;33.20
10294;DHT22;5192;50.328;7.610;2022-12-29T03:55:33;11.50;32.90
10294;DHT22;5192;50.328;7.610;2022-12-29T03:58:01;11.60;29.30
10294;DHT22;5192;50.328;7.610;2022-12-29T04:00:29;11.70;28.80
10294;DHT22;5192;50.328;7.610;2022-12-29T04:02:56;11.70;28.10
10294;DHT22;5192;50.328;7.610;2022-12-29T04:05:25;11.70;29.40
10294;DHT22;5192;50.328;7.610;2022-12-29T04:07:53;11.70;29.70
10294;DHT22;5192;50.328;7.610;2022-12-29T04:10:19;11.60;30.00
10294;DHT22;5192;50.328;7.610;2022-12-29T04:12:47;11.80;29.50
10294;DHT22;5192;50.328;7.610;2022-12-29T04:15:13;11.70;28.10
10294;DHT22;5192;50.328;7.610;2022-12-29T04:17:38;11.80;28.90
10294;DHT22;5192;50.328;7.610;2022-12-29T04:20:06;11.80;28.30
10294;DHT22;5192;50.328;7.610;2022-12-29T04:23:01;11.80;27.90
10294;DHT22;5192;50.328;7.610;2022-12-29T04:25:29;11.80;27.40
10294;DHT22;5192;50.328;7.610;2022-12-29T04:28:01;11.80;28.10
10294;DHT22;5192;50.328;7.610;2022-12-29T04:30:28;11.80;29.00
10294;DHT22;5192;50.328;7.610;2022-12-29T04:32:55;11.80;28.50
10294;DHT22;5192;50.328;7.610;2022-12-29T04:35:20;11.80;28.90
10294;DHT22;5192;50.328;7.610;2022-12-29T04:37:46;11.80;28.80
10294;DHT22;5192;50.328;7.610;2022-12-29T04:40:13;11.80;28.00
10294;DHT22;5192;50.328;7.610;2022-12-29T04:42:40;11.90;27.10
10294;DHT22;5192;50.328;7.610;2022-12-29T04:45:07;11.80;26.90
10294;DHT22;5192;50.328;7.610;2022-12-29T04:47:34;11.90;26.90
10294;DHT22;5192;50.328;7.610;2022-12-29T04:49:59;11.80;26.80
10294;DHT22;5192;50.328;7.610;2022-12-29T04:52:26;11.90;25.90
10294;DHT22;5192;50.328;7.610;2022-12-29T04:54:54;11.90;25.30
10294;DHT22;5192;50.328;7.610;2022-12-29T04:57:21;11.90;25.40
10294;DHT22;5192;50.328;7.610;2022-12-29T04:59:48;11.90;24.80
10294;DHT22;5192;50.328;7.610;2022-12-29T05:02:15;11.90;24.80
10294;DHT22;5192;50.328;7.610;2022-12-29T05:04:42;12.00;24.10
10294;DHT22;5192;50.328;7.610;2022-12-29T05:07:08;12.00;24.10
10294;DHT22;5192;50.328;7.610;2022-12-29T05:09:36;12.00;24.20
10294;DHT22;5192;50.328;7.610;2022-12-29T05:12:03;12.00;24.50
10294;DHT22;5192;50.328;7.610;2022-12-29T05:14:33;11.90;24.80
10294;DHT22;5192;50.328;7.610;2022-12-29T05:17:00;11.90;24.20
10294;DHT22;5192;50.328;7.610;2022-12-29T05:19:27;11.90;25.50
10294;DHT22;5192;50.328;7.610;2022-12-29T05:21:53;11.90;25.10
10294;DHT22;5192;50.328;7.610;2022-12-29T05:24:20;11.90;25.30
10294;DHT22;5192;50.328;7.610;2022-12-29T05:26:48;11.90;25.70
10294;DHT22;5192;50.328;7.610;2022-12-29T05:29:14;11.90;25.90
10294;DHT22;5192;50.328;7.610;2022-12-29T05:31:39;11.90;25.30
10294;DHT22;5192;50.328;7.610;2022-12-29T05:34:09;12.00;25.70
10294;DHT22;5192;50.328;7.610;2022-12-29T05:36:34;12.00;25.50
10294;DHT22;5192;50.328;7.610;2022-12-29T05:39:02;11.90;25.80
10294;DHT22;5192;50.328;7.610;2022-12-29T05:41:30;11.90;26.50
10294;DHT22;5192;50.328;7.610;2022-12-29T05:43:58;11.90;26.70
10294;DHT22;5192;50.328;7.610;2022-12-29T05:46:24;11.90;26.00
10294;DHT22;5192;50.328;7.610;2022-12-29T05:48:51;11.90;26.60
10294;DHT22;5192;50.328;7.610;2022-12-29T05:51:19;11.90;26.40
10294;DHT22;5192;50.328;7.610;2022-12-29T05:53:46;11.90;26.70
10294;DHT22;5192;50.328;7.610;2022-12-29T05:56:14;11.90;26.60
10294;DHT22;5192;50.328;7.610;2022-12-29T05:58:41;11.90;26.70
10294;DHT22;5192;50.328;7.610;2022-12-29T06:01:08;11.90;27.70
10294;DHT22;5192;50.328;7.610;2022-12-29T06:03:36;11.90;28.40
10294;DHT22;5192;50.328;7.610;2022-12-29T06:06:05;11.90;28.40
10294;DHT22;5192;50.328;7.610;2022-12-29T06:08:34;11.80;29.30
10294;DHT22;5192;50.328;7.610;2022-12-29T06:11:01;11.80;29.60
10294;DHT22;5192;50.328;7.610;2022-12-29T06:13:27;11.80;30.10
10294;DHT22;5192;50.328;7.610;2022-12-29T06:15:54;11.80;30.60
10294;DHT22;5192;50.328;7.610;2022-12-29T06:18:22;11.70;31.50
10294;DHT22;5192;50.328;7.610;2022-12-29T06:20:48;11.80;30.40
10294;DHT22;5192;50.328;7.610;2022-12-29T06:23:17;11.70;31.10
10294;DHT22;5192;50.328;7.610;2022-12-29T06:25:47;11.70;32.20
10294;DHT22;5192;50.328;7.610;2022-12-29T06:28:15;11.60;32.70
10294;DHT22;5192;50.328;7.610;2022-12-29T06:30:44;11.60;32.40
10294;DHT22;5192;50.328;7.610;2022-12-29T06:33:14;11.60;32.50
10294;DHT22;5192;50.328;7.610;2022-12-29T06:35:42;11.60;33.70
10294;DHT22;5192;50.328;7.610;2022-12-29T06:38:09;11.50;35.10
10294;DHT22;5192;50.328;7.610;2022-12-29T06:40:37;11.50;36.10
10294;DHT22;5192;50.328;7.610;2022-12-29T06:43:05;11.40;37.40
10294;DHT22;5192;50.328;7.610;2022-12-29T06:45:41;11.50;38.40
10294;DHT22;5192;50.328;7.610;2022-12-29T06:48:12;11.40;39.40
10294;DHT22;5192;50.328;7.610;2022-12-29T06:50:38;11.40;39.90
10294;DHT22;5192;50.328;7.610;2022-12-29T06:53:04;11.30;42.60
10294;DHT22;5192;50.328;7.610;2022-12-29T06:55:31;11.20;44.30
10294;DHT22;5192;50.328;7.610;2022-12-29T06:57:57;11.30;46.70
10294;DHT22;5192;50.328;7.610;2022-12-29T07:00:25;11.20;47.20
10294;DHT22;5192;50.328;7.610;2022-12-29T07:02:57;11.20;47.30
10294;DHT22;5192;50.328;7.610;2022-12-29T07:05:24;11.20;47.10
10294;DHT22;5192;50.328;7.610;2022-12-29T07:07:55;11.30;44.00
10294;DHT22;5192;50.328;7.610;2022-12-29T07:10:23;11.30;42.80
10294;DHT22;5192;50.328;7.610;2022-12-29T07:12:51;11.30;43.40
10294;DHT22;5192;50.328;7.610;2022-12-29T07:15:19;11.30;41.80
10294;DHT22;5192;50.328;7.610;2022-12-29T07:17:47;11.30;41.40
10294;DHT22;5192;50.328;7.610;2022-12-29T07:20:18;11.30;44.30
10294;DHT22;5192;50.328;7.610;2022-12-29T07:22:46;11.20;45.50
10294;DHT22;5192;50.328;7.610;2022-12-29T07:25:13;11.30;44.00
10294;DHT22;5192;50.328;7.610;2022-12-29T07:27:41;11.40;42.60
10294;DHT22;5192;50.328;7.610;2022-12-29T07:30:07;11.30;46.50
10294;DHT22;5192;50.328;7.610;2022-12-29T07:32:36;11.30;46.00
10294;DHT22;5192;50.328;7.610;2022-12-29T07:35:03;11.20;47.80
10294;DHT22;5192;50.328;7.610;2022-12-29T07:37:30;11.20;47.70
10294;DHT22;5192;50.328;7.610;2022-12-29T07:39:56;11.20;52.10
10294;DHT22;5192;50.328;7.610;2022-12-29T07:42:21;11.10;54.80
10294;DHT22;5192;50.328;7.610;2022-12-29T07:44:50;11.00;56.80
10294;DHT22;5192;50.328;7.610;2022-12-29T07:47:16;11.00;56.10
10294;DHT22;5192;50.328;7.610;2022-12-29T07:49:42;10.90;57.30
10294;DHT22;5192;50.328;7.610;2022-12-29T07:52:09;10.80;58.20
10294;DHT22;5192;50.328;7.610;2022-12-29T07:54:35;10.70;60.70
10294;DHT22;5192;50.328;7.610;2022-12-29T07:57:01;10.50;64.20
10294;DHT22;5192;50.328;7.610;2022-12-29T07:59:27;10.50;56.90
10294;DHT22;5192;50.328;7.610;2022-12-29T08:01:54;10.60;58.40
10294;DHT22;5192;50.328;7.610;2022-12-29T08:04:20;10.50;55.10
10294;DHT22;5192;50.328;7.610;2022-12-29T08:06:48;10.40;53.70
10294;DHT22;5192;50.328;7.610;2022-12-29T08:09:15;10.50;44.00
10294;DHT22;5192;50.328;7.610;2022-12-29T08:11:42;10.50;47.20
10294;DHT22;5192;50.328;7.610;2022-12-29T08:14:08;10.50;40.40
10294;DHT22;5192;50.328;7.610;2022-12-29T08:16:36;10.50;43.10
10294;DHT22;5192;50.328;7.610;2022-12-29T08:19:04;10.60;33.70
10294;DHT22;5192;50.328;7.610;2022-12-29T08:21:30;10.60;35.80
10294;DHT22;5192;50.328;7.610;2022-12-29T08:23:56;10.80;30.00
10294;DHT22;5192;50.328;7.610;2022-12-29T08:26:24;10.80;32.70
10294;DHT22;5192;50.328;7.610;2022-12-29T08:28:53;10.80;31.50
10294;DHT22;5192;50.328;7.610;2022-12-29T08:31:21;10.80;34.60
10294;DHT22;5192;50.328;7.610;2022-12-29T08:33:48;10.70;37.40
10294;DHT22;5192;50.328;7.610;2022-12-29T08:36:14;10.70;36.40
10294;DHT22;5192;50.328;7.610;2022-12-29T08:38:41;10.60;39.70
10294;DHT22;5192;50.328;7.610;2022-12-29T08:41:09;10.70;37.00
10294;DHT22;5192;50.328;7.610;2022-12-29T08:43:37;10.60;39.50
10294;DHT22;5192;50.328;7.610;2022-12-29T08:46:05;10.60;38.40
10294;DHT22;5192;50.328;7.610;2022-12-29T08:48:32;10.60;38.10
10294;DHT22;5192;50.328;7.610;2022-12-29T08:50:58;10.70;39.90
10294;DHT22;5192;50.328;7.610;2022-12-29T08:53:24;10.70;37.70
10294;DHT22;5192;50.328;7.610;2022-12-29T08:55:58;10.70;38.00
10294;DHT22;5192;50.328;7.610;2022-12-29T08:58:25;10.70;37.10
10294;DHT22;5192;50.328;7.610;2022-12-29T09:00:56;10.70;38.20
10294;DHT22;5192;50.328;7.610;2022-12-29T09:03:24;10.90;37.60
10294;DHT22;5192;50.328;7.610;2022-12-29T09:05:52;10.80;35.90
10294;DHT22;5192;50.328;7.610;2022-12-29T09:08:21;10.80;36.20
10294;DHT22;5192;50.328;7.610;2022-12-29T09:10:51;10.80;38.50
10294;DHT22;5192;50.328;7.610;2022-12-29T09:13:20;10.80;38.10
10294;DHT22;5192;50.328;7.610;2022-12-29T09:15:45;10.80;37.20
10294;DHT22;5192;50.328;7.610;2022-12-29T09:18:13;10.80;37.70
10294;DHT22;5192;50.328;7.610;2022-12-29T09:20:39;10.80;37.80
10294;DHT22;5192;50.328;7.610;2022-12-29T09:23:07;10.80;38.30
10294;DHT22;5192;50.328;7.610;2022-12-29T09:25:33;10.80;36.70
10294;DHT22;5192;50.328;7.610;2022-12-29T09:28:01;10.80;36.80
10294;DHT22;5192;50.328;7.610;2022-12-29T09:30:34;10.80;36.30
10294;DHT22;5192;50.328;7.610;2022-12-29T09:33:02;10.80;38.10
10294;DHT22;5192;50.328;7.610;2022-12-29T09:35:28;10.80;32.60
10294;DHT22;5192;50.328;7.610;2022-12-29T09:37:55;10.90;35.00
10294;DHT22;5192;50.328;7.610;2022-12-29T09:40:30;10.90;31.00
10294;DHT22;5192;50.328;7.610;2022-12-29T09:48:40;11.00;28.40
10294;DHT22;5192;50.328;7.610;2022-12-29T09:51:14;11.10;26.40
10294;DHT22;5192;50.328;7.610;2022-12-29T09:53:56;11.10;25.80
10294;DHT22;5192;50.328;7.610;2022-12-29T09:56:25;11.10;27.40
10294;DHT22;5192;50.328;7.610;2022-12-29T09:59:17;11.10;30.30
10294;DHT22;5192;50.328;7.610;2022-12-29T10:02:11;11.00;32.40
10294;DHT22;5192;50.328;7.610;2022-12-29T10:04:43;10.90;37.80
10294;DHT22;5192;50.328;7.610;2022-12-29T10:07:48;10.60;47.90
10294;DHT22;5192;50.328;7.610;2022-12-29T10:10:30;10.30;53.40
10294;DHT22;5192;50.328;7.610;2022-12-29T10:13:21;10.20;58.90
10294;DHT22;5192;50.328;7.610;2022-12-29T10:16:17;10.10;58.10
10294;DHT22;5192;50.328;7.610;2022-12-29T10:24:52;10.10;64.30
10294;DHT22;5192;50.328;7.610;2022-12-29T10:27:20;10.20;66.80
10294;DHT22;5192;50.328;7.610;2022-12-29T10:29:56;10.40;59.80
10294;DHT22;5192;50.328;7.610;2022-12-29T10:32:41;10.40;59.90
10294;DHT22;5192;50.328;7.610;2022-12-29T10:35:16;10.40;59.20
10294;DHT22;5192;50.328;7.610;2022-12-29T10:38:02;10.50;54.60
10294;DHT22;5192;50.328;7.610;2022-12-29T10:43:37;10.50;52.40
10294;DHT22;5192;50.328;7.610;2022-12-29T10:46:11;10.50;47.90
10294;DHT22;5192;50.328;7.610;2022-12-29T10:48:37;10.50;47.10
10294;DHT22;5192;50.328;7.610;2022-12-29T10:51:05;10.40;57.30
10294;DHT22;5192;50.328;7.610;2022-12-29T10:53:57;10.20;62.20
10294;DHT22;5192;50.328;7.610;2022-12-29T10:56:44;10.20;68.00
10294;DHT22;5192;50.328;7.610;2022-12-29T10:59:33;10.20;77.00
10294;DHT22;5192;50.328;7.610;2022-12-29T11:05:22;10.20;65.70
10294;DHT22;5192;50.328;7.610;2022-12-29T11:07:58;10.30;61.60
10294;DHT22;5192;50.328;7.610;2022-12-29T11:13:25;10.30;53.90
10294;DHT22;5192;50.328;7.610;2022-12-29T11:15:53;10.30;54.50
10294;DHT22;5192;50.328;7.610;2022-12-29T11:21:06;10.40;44.30
10294;DHT22;5192;50.328;7.610;2022-12-29T11:23:59;10.40;39.80
10294;DHT22;5192;50.328;7.610;2022-12-29T11:26:26;10.50;38.50
10294;DHT22;5192;50.328;7.610;2022-12-29T11:31:58;10.60;29.00
10294;DHT22;5192;50.328;7.610;2022-12-29T11:34:43;10.70;32.90
10294;DHT22;5192;50.328;7.610;2022-12-29T11:37:48;10.70;28.20
10294;DHT22;5192;50.328;7.610;2022-12-29T11:40:22;10.80;25.50
10294;DHT22;5192;50.328;7.610;2022-12-29T11:43:11;10.90;23.00
10294;DHT22;5192;50.328;7.610;2022-12-29T11:45:47;11.00;17.10
10294;DHT22;5192;50.328;7.610;2022-12-29T11:48:18;11.00;18.50
10294;DHT22;5192;50.328;7.610;2022-12-29T11:50:56;11.00;17.40
10294;DHT22;5192;50.328;7.610;2022-12-29T11:53:46;11.10;16.10
10294;DHT22;5192;50.328;7.610;2022-12-29T11:56:20;11.10;14.50
10294;DHT22;5192;50.328;7.610;2022-12-29T11:58:51;11.10;16.80
10294;DHT22;5192;50.328;7.610;2022-12-29T12:01:34;11.10;14.10
10294;DHT22;5192;50.328;7.610;2022-12-29T12:04:36;11.10;16.20
10294;DHT22;5192;50.328;7.610;2022-12-29T12:07:17;11.10;12.30
10294;DHT22;5192;50.328;7.610;2022-12-29T12:10:00;11.10;11.70
10294;DHT22;5192;50.328;7.610;2022-12-29T12:15:29;11.20;13.90
10294;DHT22;5192;50.328;7.610;2022-12-29T12:21:21;11.30;9.30
10294;DHT22;5192;50.328;7.610;2022-12-29T12:27:20;11.70;2.80
10294;DHT22;5192;50.328;7.610;2022-12-29T12:30:15;11.80;5.90
10294;DHT22;5192;50.328;7.610;2022-12-29T12:39:02;11.50;5.00
10294;DHT22;5192;50.328;7.610;2022-12-29T12:44:59;11.80;3.60
10294;DHT22;5192;50.328;7.610;2022-12-29T12:48:12;11.70;3.30
10294;DHT22;5192;50.328;7.610;2022-12-29T13:05:46;11.30;5.50
10294;DHT22;5192;50.328;7.610;2022-12-29T13:12:04;11.50;4.30
10294;DHT22;5192;50.328;7.610;2022-12-29T13:20:52;11.90;1.80
10294;DHT22;5192;50.328;7.610;2022-12-29T13:23:30;11.80;1.00
10294;DHT22;5192;50.328;7.610;2022-12-29T13:26:32;11.50;2.20
10294;DHT22;5192;50.328;7.610;2022-12-29T13:35:24;11.80;1.00
10294;DHT22;5192;50.328;7.610;2022-12-29T13:38:13;11.60;1.00
10294;DHT22;5192;50.328;7.610;2022-12-29T13:40:55;11.70;1.20
10294;DHT22;5192;50.328;7.610;2022-12-29T13:43:35;11.70;1.00
10294;DHT22;5192;50.328;7.610;2022-12-29T13:46:27;11.40;1.00
10294;DHT22;5192;50.328;7.610;2022-12-29T13:49:15;11.30;1.00
10294;DHT22;5192;50.328;7.610;2022-12-29T13:52:21;11.60;1.00
10294;DHT22;5192;50.328;7.610;2022-12-29T13:58:05;12.10;1.00
10294;DHT22;5192;50.328;7.610;2022-12-29T14:06:34;11.60;1.00
10294;DHT22;5192;50.328;7.610;2022-12-29T14:09:50;11.30;1.80
10294;DHT22;5192;50.328;7.610;2022-12-29T14:12:40;11.30;1.80
10294;DHT22;5192;50.328;7.610;2022-12-29T14:17:40;11.10;1.70
10294;DHT22;5192;50.328;7.610;2022-12-29T14:20:22;11.10;3.40
10294;DHT22;5192;50.328;7.610;2022-12-29T14:28:53;10.90;6.00
10294;DHT22;5192;50.328;7.610;2022-12-29T14:31:32;10.90;5.90
10294;DHT22;5192;50.328;7.610;2022-12-29T14:36:41;10.90;7.40
10294;DHT22;5192;50.328;7.610;2022-12-29T14:39:37;10.90;4.60
10294;DHT22;5192;50.328;7.610;2022-12-29T14:42:13;10.90;4.70
10294;DHT22;5192;50.328;7.610;2022-12-29T14:47:36;10.70;4.60
10294;DHT22;5192;50.328;7.610;2022-12-29T14:50:25;10.70;4.50
10294;DHT22;5192;50.328;7.610;2022-12-29T14:56:36;10.60;4.50
10294;DHT22;5192;50.328;7.610;2022-12-29T14:59:10;10.50;5.80
10294;DHT22;5192;50.328;7.610;2022-12-29T15:01:49;10.50;4.10
10294;DHT22;5192;50.328;7.610;2022-12-29T15:04:39;10.40;6.50
10294;DHT22;5192;50.328;7.610;2022-12-29T15:07:09;10.40;5.80
10294;DHT22;5192;50.328;7.610;2022-12-29T15:09:36;10.30;4.70
10294;DHT22;5192;50.328;7.610;2022-12-29T15:18:25;10.30;3.90
10294;DHT22;5192;50.328;7.610;2022-12-29T15:21:01;10.30;5.10
10294;DHT22;5192;50.328;7.610;2022-12-29T15:23:32;10.20;5.30
10294;DHT22;5192;50.328;7.610;2022-12-29T15:26:07;10.10;6.70
10294;DHT22;5192;50.328;7.610;2022-12-29T15:28:53;10.00;7.60
10294;DHT22;5192;50.328;7.610;2022-12-29T15:31:45;9.90;7.90
10294;DHT22;5192;50.328;7.610;2022-12-29T15:34:14;9.90;6.40
10294;DHT22;5192;50.328;7.610;2022-12-29T15:36:41;10.00;5.10
10294;DHT22;5192;50.328;7.610;2022-12-29T15:39:21;10.10;3.10
10294;DHT22;5192;50.328;7.610;2022-12-29T15:42:00;10.30;5.00
10294;DHT22;5192;50.328;7.610;2022-12-29T15:44:49;10.10;1.20
10294;DHT22;5192;50.328;7.610;2022-12-29T15:47:18;10.00;3.30
10294;DHT22;5192;50.328;7.610;2022-12-29T15:49:51;10.00;1.00
10294;DHT22;5192;50.328;7.610;2022-12-29T15:52:21;10.10;1.00
10294;DHT22;5192;50.328;7.610;2022-12-29T15:54:50;10.10;1.00
10294;DHT22;5192;50.328;7.610;2022-12-29T15:57:26;10.10;1.00
10294;DHT22;5192;50.328;7.610;2022-12-29T15:59:54;10.00;1.00
10294;DHT22;5192;50.328;7.610;2022-12-29T16:02:22;10.00;1.00
10294;DHT22;5192;50.328;7.610;2022-12-29T16:04:50;10.00;1.00
10294;DHT22;5192;50.328;7.610;2022-12-29T16:09:57;9.90;1.00
10294;DHT22;5192;50.328;7.610;2022-12-29T16:12:29;9.90;1.00
10294;DHT22;5192;50.328;7.610;2022-12-29T16:15:15;9.80;1.00
10294;DHT22;5192;50.328;7.610;2022-12-29T16:17:54;9.80;1.00
10294;DHT22;5192;50.328;7.610;2022-12-29T16:20:48;9.70;1.00
10294;DHT22;5192;50.328;7.610;2022-12-29T16:23:19;9.70;1.00
10294;DHT22;5192;50.328;7.610;2022-12-29T16:25:47;9.70;1.00
10294;DHT22;5192;50.328;7.610;2022-12-29T16:28:41;9.70;1.00
10294;DHT22;5192;50.328;7.610;2022-12-29T16:34:28;9.70;1.00
10294;DHT22;5192;50.328;7.610;2022-12-29T16:39:53;9.70;1.00
10294;DHT22;5192;50.328;7.610;2022-12-29T16:42:45;9.70;1.00
10294;DHT22;5192;50.328;7.610;2022-12-29T16:48:36;9.60;1.00
10294;DHT22;5192;50.328;7.610;2022-12-29T16:51:33;9.60;1.10
10294;DHT22;5192;50.328;7.610;2022-12-29T16:54:01;9.60;1.00
10294;DHT22;5192;50.328;7.610;2022-12-29T16:56:30;9.50;2.50
10294;DHT22;5192;50.328;7.610;2022-12-29T16:59:17;9.60;2.70
10294;DHT22;5192;50.328;7.610;2022-12-29T17:01:56;9.50;2.60
10294;DHT22;5192;50.328;7.610;2022-12-29T17:04:29;9.40;4.20
10294;DHT22;5192;50.328;7.610;2022-12-29T17:06:57;9.30;4.50
10294;DHT22;5192;50.328;7.610;2022-12-29T17:09:29;9.30;5.20
10294;DHT22;5192;50.328;7.610;2022-12-29T17:12:02;9.30;5.90
10294;DHT22;5192;50.328;7.610;2022-12-29T17:14:58;9.30;6.20
10294;DHT22;5192;50.328;7.610;2022-12-29T17:17:46;9.20;7.20
10294;DHT22;5192;50.328;7.610;2022-12-29T17:20:29;9.20;7.70
10294;DHT22;5192;50.328;7.610;2022-12-29T17:22:57;9.20;8.20
10294;DHT22;5192;50.328;7.610;2022-12-29T17:25:35;9.20;6.40
10294;DHT22;5192;50.328;7.610;2022-12-29T17:28:19;9.30;6.30
10294;DHT22;5192;50.328;7.610;2022-12-29T17:30:48;9.30;6.50
10294;DHT22;5192;50.328;7.610;2022-12-29T17:33:17;9.30;6.50
10294;DHT22;5192;50.328;7.610;2022-12-29T17:35:43;9.20;7.70
10294;DHT22;5192;50.328;7.610;2022-12-29T17:38:29;9.20;6.10
10294;DHT22;5192;50.328;7.610;2022-12-29T17:40:59;9.20;7.30
10294;DHT22;5192;50.328;7.610;2022-12-29T17:43:26;9.10;8.40
10294;DHT22;5192;50.328;7.610;2022-12-29T17:45:57;9.20;8.10
10294;DHT22;5192;50.328;7.610;2022-12-29T17:48:24;9.10;6.70
10294;DHT22;5192;50.328;7.610;2022-12-29T17:50:53;9.10;9.10
10294;DHT22;5192;50.328;7.610;2022-12-29T17:53:24;9.10;8.70
10294;DHT22;5192;50.328;7.610;2022-12-29T17:55:51;9.20;8.10
10294;DHT22;5192;50.328;7.610;2022-12-29T17:58:31;9.20;9.90
10294;DHT22;5192;50.328;7.610;2022-12-29T18:01:01;9.10;8.70
10294;DHT22;5192;50.328;7.610;2022-12-29T18:03:34;9.00;9.00
10294;DHT22;5192;50.328;7.610;2022-12-29T18:06:04;8.90;9.90
10294;DHT22;5192;50.328;7.610;2022-12-29T18:08:38;8.90;10.20
10294;DHT22;5192;50.328;7.610;2022-12-29T18:11:38;8.90;10.70
10294;DHT22;5192;50.328;7.610;2022-12-29T18:14:09;8.90;10.30
10294;DHT22;5192;50.328;7.610;2022-12-29T18:16:38;9.00;12.10
10294;DHT22;5192;50.328;7.610;2022-12-29T18:19:04;8.80;11.90
10294;DHT22;5192;50.328;7.610;2022-12-29T18:21:33;8.80;12.10
10294;DHT22;5192;50.328;7.610;2022-12-29T18:24:00;8.80;11.90
10294;DHT22;5192;50.328;7.610;2022-12-29T18:26:28;8.70;12.60
10294;DHT22;5192;50.328;7.610;2022-12-29T18:28:58;8.70;13.40
10294;DHT22;5192;50.328;7.610;2022-12-29T18:34:15;8.60;14.00
10294;DHT22;5192;50.328;7.610;2022-12-29T18:36:44;8.50;14.80
10294;DHT22;5192;50.328;7.610;2022-12-29T18:39:10;8.40;16.10
10294;DHT22;5192;50.328;7.610;2022-12-29T18:41:38;8.40;17.00
10294;DHT22;5192;50.328;7.610;2022-12-29T18:44:09;8.40;17.00
10294;DHT22;5192;50.328;7.610;2022-12-29T18:46:35;8.40;17.10
10294;DHT22;5192;50.328;7.610;2022-12-29T18:49:03;8.30;17.50
10294;DHT22;5192;50.328;7.610;2022-12-29T18:51:31;8.30;18.30
10294;DHT22;5192;50.328;7.610;2022-12-29T18:53:59;8.30;19.00
10294;DHT22;5192;50.328;7.610;2022-12-29T18:56:26;8.20;19.50
10294;DHT22;5192;50.328;7.610;2022-12-29T18:58:55;8.10;19.90
10294;DHT22;5192;50.328;7.610;2022-12-29T19:01:25;8.10;21.30
10294;DHT22;5192;50.328;7.610;2022-12-29T19:03:53;8.10;21.00
10294;DHT22;5192;50.328;7.610;2022-12-29T19:06:21;8.30;19.90
10294;DHT22;5192;50.328;7.610;2022-12-29T19:08:49;8.20;20.90
10294;DHT22;5192;50.328;7.610;2022-12-29T19:11:17;8.20;21.10
10294;DHT22;5192;50.328;7.610;2022-12-29T19:13:44;8.20;21.80
10294;DHT22;5192;50.328;7.610;2022-12-29T19:16:19;8.10;23.30